Welcome to Northern Hawkes Bay. New Zealand.
PWS Header
      nz Flag



Hit Counter


W3C Valid W3C Valid logo


    Wairoa

Select any of the Stations below to visit their websites.










Historic Data from Weather Underground
Select the location of interest below. Wairoa is the default. Please have patience, this Data is slow to load in.
Northern Hawkes Bay Historical Data
Daily Summary for January 7, 2017 Units:  English    Metric   Both
« Previous Day
Next Day »
Daily Weekly Monthly Yearly Custom
  High: Low: Average:
Temperature: 70.2 °F 51.6 °F 62.4 °F
Dew Point: 55.9 °F 43.3 °F 50.5 °F
Humidity: 87% 44% 66%
Wind Speed: 13.6mph 0mph 5.8mph
Wind Gust: 18.3mph - -
Wind- - SW
Pressure: 30 in 29.7 in -
Precipitation: 0 in    
Historical Graphs
 
 
Tabular Data for January 7, 2017
Time Temperature Dew Point Pressure Wind Wind Speed Wind Gust Humidity Rainfall Rate (Hourly) solar
00:04 59.4 °F 44.1 °F 29.8 in NW 3.1 mph 6 mph 57% 0 in 0 W/m2
00:09 59.4 °F 44.1 °F 29.8 in NW 2.2 mph 5.4 mph 57% 0 in 0 W/m2
00:14 59.4 °F 44.1 °F 29.8 in NW 3.1 mph 4.5 mph 57% 0 in 0 W/m2
00:19 59.4 °F 43.7 °F 29.8 in NW 2.2 mph 6 mph 56% 0 in 0 W/m2
00:24 59.4 °F 44.1 °F 29.8 in NW 4.5 mph 6 mph 57% 0 in 0 W/m2
00:29 59.4 °F 43.7 °F 29.8 in WNW 3.8 mph 9.2 mph 56% 0 in 0 W/m2
00:34 59.7 °F 43.5 °F 29.8 in WNW 3.1 mph 9.2 mph 55% 0 in 0 W/m2
00:39 59.5 °F 43.3 °F 29.8 in WNW 3.8 mph 7.6 mph 55% 0 in 0 W/m2
00:44 59.5 °F 43.3 °F 29.8 in WNW 7.6 mph 9.2 mph 55% 0 in 0 W/m2
00:49 59.5 °F 43.9 °F 29.8 in NW 5.4 mph 9.2 mph 56% 0 in 0 W/m2
00:54 59.7 °F 43.5 °F 29.8 in NNW 4.5 mph 9.2 mph 55% 0 in 0 W/m2
00:59 59.5 °F 43.3 °F 29.8 in NNW 2.2 mph 9.2 mph 55% 0 in 0 W/m2
01:04 59.4 °F 43.7 °F 29.8 in NNW 2.2 mph 6.9 mph 56% 0 in 0 W/m2
01:09 59.2 °F 43.5 °F 29.8 in NNW 2.2 mph 6.9 mph 56% 0 in 0 W/m2
01:14 59 °F 43.9 °F 29.8 in North 2.2 mph 4.5 mph 57% 0 in 0 W/m2
01:19 58.5 °F 43.7 °F 29.8 in North 3.1 mph 6 mph 58% 0 in 0 W/m2
01:24 58.1 °F 43.9 °F 29.8 in North 1.6 mph 6 mph 59% 0 in 0 W/m2
01:29 58.1 °F 43.9 °F 29.8 in North 3.8 mph 5.4 mph 59% 0 in 0 W/m2
01:34 57.9 °F 43.7 °F 29.8 in NNW 3.1 mph 6.9 mph 59% 0 in 0 W/m2
01:39 57.6 °F 43.9 °F 29.8 in NW 4.5 mph 6.9 mph 60% 0 in 0 W/m2
01:45 57.6 °F 43.9 °F 29.8 in NW 3.8 mph 6.9 mph 60% 0 in 0 W/m2
01:50 57.4 °F 44.1 °F 29.8 in NW 2.2 mph 6 mph 61% 0 in 0 W/m2
01:55 57 °F 44.6 °F 29.8 in NW 4.5 mph 7.6 mph 63% 0 in 0 W/m2
02:00 57 °F 44.6 °F 29.8 in NW 6 mph 10.7 mph 63% 0 in 0 W/m2
02:05 57.7 °F 44.1 °F 29.8 in NW 6 mph 10.7 mph 60% 0 in 0 W/m2
02:10 58.1 °F 43.9 °F 29.8 in NW 5.4 mph 9.8 mph 59% 0 in 0 W/m2
02:15 58.6 °F 43.9 °F 29.8 in WNW 5.4 mph 10.7 mph 58% 0 in 0 W/m2
02:20 58.8 °F 44.1 °F 29.8 in NW 6.9 mph 12.1 mph 58% 0 in 0 W/m2
02:26 58.6 °F 43.9 °F 29.8 in WNW 5.4 mph 12.1 mph 58% 0 in 0 W/m2
02:31 58.3 °F 43.5 °F 29.8 in WNW 5.4 mph 10.7 mph 58% 0 in 0 W/m2
02:36 57.9 °F 43.7 °F 29.8 in NW 2.2 mph 9.8 mph 59% 0 in 0 W/m2
02:41 57.6 °F 43.9 °F 29.8 in NW 1.6 mph 6.9 mph 60% 0 in 0 W/m2
02:46 57 °F 44.1 °F 29.8 in North 0.7 mph 4.5 mph 62% 0 in 0 W/m2
02:52 56.7 °F 44.2 °F 29.8 in North 2.2 mph 4.5 mph 63% 0 in 0 W/m2
02:57 56.3 °F 44.2 °F 29.8 in North 1.6 mph 4.5 mph 64% 0 in 0 W/m2
03:02 56.3 °F 44.8 °F 29.8 in North 1.6 mph 3.8 mph 65% 0 in 0 W/m2
03:07 55.9 °F 44.4 °F 29.8 in NNW 2.2 mph 4.5 mph 65% 0 in 0 W/m2
03:12 55.9 °F 44.4 °F 29.8 in NW 3.1 mph 5.4 mph 65% 0 in 0 W/m2
03:17 56.3 °F 44.8 °F 29.8 in NW 2.2 mph 5.4 mph 65% 0 in 0 W/m2
03:22 56.1 °F 44.4 °F 29.8 in NW 1.6 mph 5.4 mph 65% 0 in 0 W/m2
03:27 56.1 °F 44.4 °F 29.8 in WNW 0.7 mph 3.8 mph 65% 0 in 0 W/m2
03:32 55.9 °F 44.4 °F 29.8 in NW 1.6 mph 3.8 mph 65% 0 in 0 W/m2
03:37 55.8 °F 44.2 °F 29.8 in NNW 0.7 mph 3.1 mph 65% 0 in 0 W/m2
03:42 55.4 °F 43.9 °F 29.8 in Calm   3.1 mph 65% 0 in 0 W/m2
03:47 54.9 °F 43.7 °F 29.8 in North 0.7 mph 2.2 mph 66% 0 in 0 W/m2
03:52 54.9 °F 44.1 °F 29.8 in North 0.7 mph 2.2 mph 67% 0 in 0 W/m2
03:58 54.7 °F 44.2 °F 29.8 in North 0.7 mph 2.2 mph 68% 0 in 0 W/m2
04:03 54.3 °F 44.1 °F 29.8 in Calm   1.6 mph 68% 0 in 0 W/m2
04:08 54 °F 44.1 °F 29.8 in North 1.6 mph 3.1 mph 69% 0 in 0 W/m2
04:13 54.1 °F 44.6 °F 29.8 in North 3.1 mph 5.4 mph 70% 0 in 0 W/m2
04:19 54.9 °F 45 °F 29.8 in NNW 3.1 mph 5.4 mph 69% 0 in 0 W/m2
04:24 55 °F 44.8 °F 29.8 in NNW 3.1 mph 6 mph 68% 0 in 0 W/m2
04:29 54.9 °F 45 °F 29.8 in NNW 3.1 mph 6 mph 69% 0 in 0 W/m2
04:34 54.5 °F 45 °F 29.8 in North 0.7 mph 4.5 mph 70% 0 in 0 W/m2
04:39 54 °F 44.4 °F 29.8 in NNE 1.6 mph 4.5 mph 70% 0 in 0 W/m2
04:44 53.6 °F 44.4 °F 29.8 in North 2.2 mph 3.1 mph 71% 0 in 0 W/m2
04:49 53.4 °F 44.6 °F 29.8 in North 2.2 mph 3.8 mph 72% 0 in 0 W/m2
04:54 53.2 °F 44.8 °F 29.8 in NNW 3.8 mph 6 mph 73% 0 in 0 W/m2
04:59 53.2 °F 44.8 °F 29.8 in NNW 5.4 mph 8.3 mph 73% 0 in 0 W/m2
05:04 53.2 °F 44.8 °F 29.8 in NNW 4.5 mph 8.3 mph 73% 0 in 0 W/m2
05:09 53.2 °F 44.8 °F 29.8 in NNW 4.5 mph 8.3 mph 73% 0 in 0 W/m2
05:14 53.1 °F 44.6 °F 29.8 in NNW 4.5 mph 8.3 mph 73% 0 in 0 W/m2
05:19 53.4 °F 45 °F 29.8 in NNW 6 mph 9.2 mph 73% 0 in 0 W/m2
05:24 53.4 °F 45 °F 29.8 in NW 6 mph 10.7 mph 73% 0 in 0 W/m2
05:29 53.2 °F 44.8 °F 29.8 in NNW 5.4 mph 10.7 mph 73% 0 in 0 W/m2
05:34 53.1 °F 44.6 °F 29.8 in NNW 3.8 mph 9.8 mph 73% 0 in 0 W/m2
05:39 52.5 °F 44.4 °F 29.8 in NNW 3.1 mph 8.3 mph 74% 0 in 0 W/m2
05:44 52.3 °F 44.2 °F 29.8 in NNW 2.2 mph 7.6 mph 74% 0 in 0 W/m2
05:49 52.2 °F 44.4 °F 29.8 in North 3.1 mph 5.4 mph 75% 0 in 1 W/m2
05:54 51.8 °F 44.1 °F 29.8 in North 1.6 mph 3.8 mph 75% 0 in 3 W/m2
05:59 51.6 °F 44.8 °F 29.8 in NNE 1.6 mph 4.5 mph 77% 0 in 5 W/m2
06:04 51.6 °F 44.8 °F 29.8 in NE 1.6 mph 4.5 mph 77% 0 in 8 W/m2
06:09 51.8 °F 44.8 °F 29.8 in NE 1.6 mph 3.8 mph 77% 0 in 11 W/m2
06:14 52.2 °F 44.8 °F 29.8 in NNE 1.6 mph 3.8 mph 76% 0 in 14 W/m2
06:19 52.5 °F 45.1 °F 29.8 in NNE 3.8 mph 4.5 mph 76% 0 in 17 W/m2
06:24 53.1 °F 45.3 °F 29.8 in North 3.1 mph 6 mph 75% 0 in 20 W/m2
06:29 53.6 °F 45.1 °F 29.8 in NNW 3.1 mph 6 mph 73% 0 in 28 W/m2
06:34 54.3 °F 45.5 °F 29.8 in North 3.1 mph 5.4 mph 72% 0 in 28 W/m2
06:39 55.2 °F 46 °F 29.8 in North 2.2 mph 4.5 mph 71% 0 in 58 W/m2
06:44 56.1 °F 45.7 °F 29.8 in NNW 2.2 mph 6 mph 68% 0 in 67 W/m2
06:49 56.8 °F 46 °F 29.8 in NNW 1.6 mph 6 mph 67% 0 in 77 W/m2
06:54 57.9 °F 46.2 °F 29.8 in NNW 2.2 mph 6.9 mph 65% 0 in 88 W/m2
06:59 58.3 °F 46.2 °F 29.8 in NNW 3.1 mph 7.6 mph 64% 0 in 98 W/m2
07:04 59 °F 46.4 °F 29.8 in North 1.6 mph 7.6 mph 63% 0 in 110 W/m2
07:09 60.1 °F 46.9 °F 29.8 in NNE 2.2 mph 4.5 mph 62% 0 in 122 W/m2
07:14 60.6 °F 46.2 °F 29.8 in Calm   4.5 mph 59% 0 in 134 W/m2
07:19 60.8 °F 45.9 °F 29.8 in NNE 2.2 mph 4.5 mph 58% 0 in 148 W/m2
07:24 60.4 °F 46 °F 29.8 in NNW 3.1 mph 6 mph 59% 0 in 161 W/m2
07:29 60.8 °F 45.9 °F 29.8 in NNW 3.1 mph 6 mph 58% 0 in 172 W/m2
07:34 61.2 °F 46.2 °F 29.8 in NNW 2.2 mph 5.4 mph 58% 0 in 185 W/m2
07:39 62.1 °F 46.8 °F 29.8 in NNW 3.1 mph 5.4 mph 57% 0 in 198 W/m2
07:44 62.4 °F 46.6 °F 29.8 in North 2.2 mph 5.4 mph 56% 0 in 212 W/m2
07:49 62.8 °F 46.4 °F 29.8 in North 2.2 mph 5.4 mph 55% 0 in 225 W/m2
07:54 63.1 °F 46.2 °F 29.8 in NNW 3.8 mph 6 mph 54% 0 in 239 W/m2
07:59 62.6 °F 46.2 °F 29.8 in NW 2.2 mph 6 mph 55% 0 in 252 W/m2
08:04 63.1 °F 46.8 °F 29.8 in NW 2.2 mph 6.9 mph 55% 0 in 265 W/m2
08:09 63.1 °F 46.8 °F 29.8 in NW 2.2 mph 6.9 mph 55% 0 in 280 W/m2
08:14 64 °F 47.1 °F 29.8 in NNW 3.1 mph 6 mph 54% 0 in 294 W/m2
08:19 63.9 °F 46.4 °F 29.8 in NW 4.5 mph 7.6 mph 53% 0 in 307 W/m2
08:25 63.7 °F 46.2 °F 29.8 in NW 5.4 mph 7.6 mph 53% 0 in 327 W/m2
08:30 64 °F 47.7 °F 29.8 in NW 1.6 mph 7.6 mph 55% 0 in 343 W/m2
08:35 65.7 °F 49.1 °F 29.8 in NNW 2.2 mph 6.9 mph 55% 0 in 362 W/m2
08:40 66.4 °F 47.1 °F 29.8 in Calm   5.4 mph 50% 0 in 377 W/m2
08:45 68 °F 47.7 °F 29.8 in Calm   5.4 mph 48% 0 in 401 W/m2
08:50 68.4 °F 47.5 °F 29.8 in NNW 3.8 mph 7.6 mph 47% 0 in 418 W/m2
08:55 67.5 °F 47.7 °F 29.8 in NW 2.2 mph 7.6 mph 49% 0 in 435 W/m2
09:00 68 °F 48 °F 29.8 in NW 0.7 mph 7.6 mph 49% 0 in 455 W/m2
09:05 69.3 °F 47.7 °F 29.8 in North 2.2 mph 4.5 mph 46% 0 in 476 W/m2
09:10 69.8 °F 47.5 °F 29.8 in ENE 1.6 mph 5.4 mph 45% 0 in 506 W/m2
09:15 70 °F 47.1 °F 29.8 in SSE 0.7 mph 5.4 mph 44% 0 in 514 W/m2
09:20 70.2 °F 47.8 °F 29.8 in SSW 4.5 mph 9.2 mph 45% 0 in 535 W/m2
09:25 69.6 °F 49.1 °F 29.8 in SW 9.8 mph 11.4 mph 48% 0 in 551 W/m2
09:30 68.5 °F 46.9 °F 29.8 in SW 9.8 mph 13.6 mph 46% 0 in 573 W/m2
09:35 68.5 °F 46.9 °F 29.8 in SW 9.8 mph 14.5 mph 46% 0 in 585 W/m2
09:40 68.4 °F 46.8 °F 29.8 in WSW 7.6 mph 14.5 mph 46% 0 in 607 W/m2
09:45 68.2 °F 46.6 °F 29.9 in SW 9.8 mph 15.2 mph 46% 0 in 636 W/m2
09:50 68.2 °F 45.5 °F 29.8 in WSW 9.8 mph 15.2 mph 44% 0 in 655 W/m2
09:55 68.2 °F 45.5 °F 29.8 in West 10.7 mph 15.2 mph 44% 0 in 680 W/m2
10:00 68.2 °F 46 °F 29.9 in WSW 9.8 mph 15.2 mph 45% 0 in 697 W/m2
10:05 68.5 °F 48.6 °F 29.9 in SW 7.6 mph 15.2 mph 49% 0 in 707 W/m2
10:10 67.8 °F 53.1 °F 29.8 in SSW 9.2 mph 14.5 mph 59% 0 in 721 W/m2
10:15 67.1 °F 52.9 °F 29.9 in South 9.2 mph 13 mph 60% 0 in 733 W/m2
10:20 66.7 °F 52.9 °F 29.9 in SSW 6.9 mph 12.1 mph 61% 0 in 746 W/m2
10:25 67.1 °F 52.3 °F 29.9 in South 7.6 mph 12.1 mph 59% 0 in 758 W/m2
10:30 66.7 °F 51.4 °F 29.8 in South 6 mph 13.6 mph 58% 0 in 769 W/m2
10:35 67.1 °F 52.3 °F 29.8 in South 6 mph 13.6 mph 59% 0 in 784 W/m2
10:40 68.2 °F 52.9 °F 29.8 in South 8.3 mph 11.4 mph 58% 0 in 803 W/m2
10:45 68.2 °F 52.3 °F 29.8 in South 7.6 mph 11.4 mph 57% 0 in 814 W/m2
10:49 68.2 °F 52.9 °F 29.8 in SSW 5.4 mph 12.1 mph 58% 0 in 822 W/m2
10:54 67.6 °F 53.2 °F 29.9 in SSW 8.3 mph 12.1 mph 60% 0 in 830 W/m2
10:59 66.7 °F 51.4 °F 29.8 in South 7.6 mph 11.4 mph 58% 0 in 835 W/m2
11:04 66.7 °F 52 °F 29.8 in South 7.6 mph 11.4 mph 59% 0 in 844 W/m2
11:10 66.7 °F 52 °F 29.8 in South 7.6 mph 13 mph 59% 0 in 856 W/m2
11:15 67.3 °F 52.5 °F 29.8 in South 7.6 mph 13 mph 59% 0 in 864 W/m2
11:20 68 °F 53.2 °F 29.8 in South 5.4 mph 11.4 mph 59% 0 in 875 W/m2
11:25 68.2 °F 53.2 °F 29.8 in South 6.9 mph 10.7 mph 59% 0 in 884 W/m2
11:30 67.8 °F 53.4 °F 29.8 in South 7.6 mph 13 mph 60% 0 in 888 W/m2
11:35 68.2 °F 53.8 °F 29.8 in South 4.5 mph 13 mph 60% 0 in 893 W/m2
11:40 67.8 °F 52.5 °F 29.8 in South 4.5 mph 12.1 mph 58% 0 in 900 W/m2
11:45 67.8 °F 54 °F 29.8 in South 7.6 mph 12.1 mph 61% 0 in 903 W/m2
11:50 68 °F 53.2 °F 29.8 in South 9.2 mph 13 mph 59% 0 in 906 W/m2
12:09 67.8 °F 53.1 °F 29.8 in SSE 8.3 mph 15.2 mph 59% 0 in 915 W/m2
12:14 66.6 °F 54.9 °F 29.8 in South 11.4 mph 15.2 mph 66% 0 in 910 W/m2
12:19 65.5 °F 55 °F 29.8 in South 9.8 mph 16.8 mph 69% 0 in 905 W/m2
12:24 65.7 °F 54.9 °F 29.8 in South 7.6 mph 16.8 mph 68% 0 in 906 W/m2
12:29 66.4 °F 55.6 °F 29.8 in South 8.3 mph 16.8 mph 68% 0 in 910 W/m2
12:34 66.6 °F 54.9 °F 29.8 in South 9.2 mph 14.5 mph 66% 0 in 912 W/m2
12:39 65.8 °F 54.7 °F 29.8 in South 8.3 mph 15.2 mph 67% 0 in 911 W/m2
12:44 65.3 °F 54.1 °F 29.8 in South 9.2 mph 15.2 mph 67% 0 in 907 W/m2
12:49 65.7 °F 54.9 °F 29.8 in South 9.2 mph 15.2 mph 68% 0 in 909 W/m2
12:54 65.7 °F 54.9 °F 29.8 in South 9.2 mph 15.2 mph 68% 0 in 909 W/m2
12:59 65.7 °F 54.9 °F 29.8 in South 9.2 mph 15.2 mph 68% 0 in 909 W/m2
13:04 65.7 °F 54.9 °F 29.8 in South 9.2 mph 15.2 mph 68% 0 in 909 W/m2
13:09 65.7 °F 54.9 °F 29.8 in South 9.2 mph 15.2 mph 68% 0 in 909 W/m2
13:14 65.7 °F 54.9 °F 29.8 in South 9.2 mph 15.2 mph 68% 0 in 909 W/m2
13:19 65.7 °F 54.9 °F 29.8 in South 9.2 mph 15.2 mph 68% 0 in 909 W/m2
13:24 65.7 °F 54.9 °F 29.8 in South 9.2 mph 15.2 mph 68% 0 in 909 W/m2
13:29 65.7 °F 54.9 °F 29.8 in South 9.2 mph 15.2 mph 68% 0 in 909 W/m2
13:34 65.7 °F 54.9 °F 29.8 in South 9.2 mph 15.2 mph 68% 0 in 909 W/m2
13:39 65.7 °F 54.9 °F 29.8 in South 9.2 mph 15.2 mph 68% 0 in 909 W/m2
13:44 65.7 °F 54.9 °F 29.8 in South 9.2 mph 15.2 mph 68% 0 in 909 W/m2
13:49 65.7 °F 54.9 °F 29.8 in South 9.2 mph 15.2 mph 68% 0 in 909 W/m2
13:54 65.7 °F 54.9 °F 29.8 in South 9.2 mph 15.2 mph 68% 0 in 909 W/m2
13:59 65.7 °F 54.9 °F 29.8 in South 9.2 mph 15.2 mph 68% 0 in 909 W/m2
14:04 65.7 °F 54.9 °F 29.8 in South 9.2 mph 15.2 mph 68% 0 in 909 W/m2
14:09 65.7 °F 54.9 °F 29.8 in South 9.2 mph 15.2 mph 68% 0 in 909 W/m2
14:14 65.7 °F 54.9 °F 29.8 in South 9.2 mph 15.2 mph 68% 0 in 909 W/m2
14:19 65.7 °F 54.9 °F 29.8 in South 9.2 mph 15.2 mph 68% 0 in 909 W/m2
14:24 65.7 °F 54.9 °F 29.8 in South 9.2 mph 15.2 mph 68% 0 in 909 W/m2
14:30 65.7 °F 54.9 °F 29.8 in South 9.2 mph 15.2 mph 68% 0 in 909 W/m2
14:35 65.7 °F 54.9 °F 29.8 in South 9.2 mph 15.2 mph 68% 0 in 909 W/m2
14:40 65.7 °F 54.9 °F 29.8 in South 9.2 mph 15.2 mph 68% 0 in 909 W/m2
14:45 65.7 °F 54.9 °F 29.8 in South 9.2 mph 15.2 mph 68% 0 in 909 W/m2
14:50 65.7 °F 54.9 °F 29.8 in South 9.2 mph 15.2 mph 68% 0 in 909 W/m2
14:55 65.7 °F 54.9 °F 29.8 in South 9.2 mph 15.2 mph 68% 0 in 909 W/m2
15:00 65.7 °F 54.9 °F 29.8 in South 9.2 mph 15.2 mph 68% 0 in 909 W/m2
15:05 65.7 °F 54.9 °F 29.8 in South 9.2 mph 15.2 mph 68% 0 in 909 W/m2
15:10 65.7 °F 54.9 °F 29.8 in South 9.2 mph 15.2 mph 68% 0 in 909 W/m2
15:15 65.7 °F 54.9 °F 29.8 in South 9.2 mph 15.2 mph 68% 0 in 909 W/m2
15:20 65.7 °F 54.9 °F 29.8 in South 9.2 mph 15.2 mph 68% 0 in 909 W/m2
15:25 65.7 °F 54.9 °F 29.8 in South 9.2 mph 15.2 mph 68% 0 in 909 W/m2
15:30 65.7 °F 54.9 °F 29.8 in South 9.2 mph 15.2 mph 68% 0 in 909 W/m2
15:35 65.7 °F 54.9 °F 29.8 in South 9.2 mph 15.2 mph 68% 0 in 909 W/m2
15:40 65.7 °F 54.9 °F 29.8 in South 9.2 mph 15.2 mph 68% 0 in 909 W/m2
15:45 65.7 °F 54.9 °F 29.8 in South 9.2 mph 15.2 mph 68% 0 in 909 W/m2
15:50 65.7 °F 54.9 °F 29.8 in South 9.2 mph 15.2 mph 68% 0 in 909 W/m2
15:55 65.7 °F 54.9 °F 29.8 in South 9.2 mph 15.2 mph 68% 0 in 909 W/m2
16:00 65.7 °F 54.9 °F 29.8 in South 9.2 mph 15.2 mph 68% 0 in 909 W/m2
16:05 65.7 °F 54.9 °F 29.8 in South 9.2 mph 15.2 mph 68% 0 in 909 W/m2
16:10 65.7 °F 54.9 °F 29.8 in South 9.2 mph 15.2 mph 68% 0 in 909 W/m2
16:15 65.7 °F 54.9 °F 29.8 in South 9.2 mph 15.2 mph 68% 0 in 909 W/m2
16:20 65.7 °F 54.9 °F 29.8 in South 9.2 mph 15.2 mph 68% 0 in 909 W/m2
16:25 65.7 °F 54.9 °F 29.8 in South 9.2 mph 15.2 mph 68% 0 in 909 W/m2
16:30 65.7 °F 54.9 °F 29.8 in South 9.2 mph 15.2 mph 68% 0 in 909 W/m2
16:35 65.7 °F 54.9 °F 29.8 in South 9.2 mph 15.2 mph 68% 0 in 909 W/m2
16:40 65.7 °F 54.9 °F 29.8 in South 9.2 mph 15.2 mph 68% 0 in 909 W/m2
16:46 65.7 °F 54.9 °F 29.8 in South 9.2 mph 15.2 mph 68% 0 in 909 W/m2
16:51 65.7 °F 54.9 °F 29.8 in South 9.2 mph 15.2 mph 68% 0 in 909 W/m2
16:56 65.7 °F 54.9 °F 29.8 in South 9.2 mph 15.2 mph 68% 0 in 909 W/m2
17:01 65.7 °F 54.9 °F 29.8 in South 9.2 mph 15.2 mph 68% 0 in 909 W/m2
17:06 65.7 °F 54.9 °F 29.8 in South 9.2 mph 15.2 mph 68% 0 in 909 W/m2
17:11 65.7 °F 54.9 °F 29.8 in South 9.2 mph 15.2 mph 68% 0 in 909 W/m2
17:16 65.7 °F 54.9 °F 29.8 in South 9.2 mph 15.2 mph 68% 0 in 909 W/m2
17:21 65.7 °F 54.9 °F 29.8 in South 9.2 mph 15.2 mph 68% 0 in 909 W/m2
17:26 65.7 °F 54.9 °F 29.8 in South 9.2 mph 15.2 mph 68% 0 in 909 W/m2
17:31 65.7 °F 54.9 °F 29.8 in South 9.2 mph 15.2 mph 68% 0 in 909 W/m2
17:36 65.7 °F 54.9 °F 29.8 in South 9.2 mph 15.2 mph 68% 0 in 909 W/m2
17:41 65.7 °F 54.9 °F 29.8 in South 9.2 mph 15.2 mph 68% 0 in 909 W/m2
17:46 65.7 °F 54.9 °F 29.8 in South 9.2 mph 15.2 mph 68% 0 in 909 W/m2
17:51 65.7 °F 54.9 °F 29.8 in South 9.2 mph 15.2 mph 68% 0 in 909 W/m2
17:56 65.7 °F 54.9 °F 29.8 in South 9.2 mph 15.2 mph 68% 0 in 909 W/m2
18:01 65.7 °F 54.9 °F 29.8 in South 9.2 mph 15.2 mph 68% 0 in 909 W/m2
18:06 65.7 °F 54.9 °F 29.8 in South 9.2 mph 15.2 mph 68% 0 in 909 W/m2
18:11 65.7 °F 54.9 °F 29.8 in South 9.2 mph 15.2 mph 68% 0 in 909 W/m2
18:16 65.7 °F 54.9 °F 29.8 in South 9.2 mph 15.2 mph 68% 0 in 909 W/m2
18:21 65.7 °F 54.9 °F 29.8 in South 9.2 mph 15.2 mph 68% 0 in 909 W/m2
18:26 65.7 °F 54.9 °F 29.8 in South 9.2 mph 15.2 mph 68% 0 in 909 W/m2
18:31 65.7 °F 54.9 °F 29.8 in South 9.2 mph 15.2 mph 68% 0 in 909 W/m2
18:36 65.7 °F 54.9 °F 29.8 in South 9.2 mph 15.2 mph 68% 0 in 909 W/m2
18:41 65.7 °F 54.9 °F 29.8 in South 9.2 mph 15.2 mph 68% 0 in 909 W/m2
18:46 65.7 °F 54.9 °F 29.8 in South 9.2 mph 15.2 mph 68% 0 in 909 W/m2
18:51 65.7 °F 54.9 °F 29.8 in South 9.2 mph 15.2 mph 68% 0 in 909 W/m2
18:56 65.7 °F 54.9 °F 29.8 in South 9.2 mph 15.2 mph 68% 0 in 909 W/m2
19:01 65.7 °F 54.9 °F 29.8 in South 9.2 mph 15.2 mph 68% 0 in 909 W/m2
19:06 65.7 °F 54.9 °F 29.8 in South 9.2 mph 15.2 mph 68% 0 in 909 W/m2
19:11 65.7 °F 54.9 °F 29.8 in South 9.2 mph 15.2 mph 68% 0 in 909 W/m2
19:17 65.7 °F 54.9 °F 29.8 in South 9.2 mph 15.2 mph 68% 0 in 909 W/m2
19:22 65.7 °F 54.9 °F 29.8 in South 9.2 mph 15.2 mph 68% 0 in 909 W/m2
19:27 65.7 °F 54.9 °F 29.8 in South 9.2 mph 15.2 mph 68% 0 in 909 W/m2
19:32 65.7 °F 54.9 °F 29.8 in South 9.2 mph 15.2 mph 68% 0 in 909 W/m2
19:37 65.7 °F 54.9 °F 29.8 in South 9.2 mph 15.2 mph 68% 0 in 909 W/m2
19:42 65.7 °F 54.9 °F 29.8 in South 9.2 mph 15.2 mph 68% 0 in 909 W/m2
19:47 65.7 °F 54.9 °F 29.8 in South 9.2 mph 15.2 mph 68% 0 in 909 W/m2
19:52 65.7 °F 54.9 °F 29.8 in South 9.2 mph 15.2 mph 68% 0 in 909 W/m2
19:57 65.7 °F 54.9 °F 29.8 in South 9.2 mph 15.2 mph 68% 0 in 909 W/m2
20:14 65.7 °F 54.9 °F 29.8 in South 9.2 mph 15.2 mph 68% 0 in 909 W/m2
20:19 65.7 °F 54.9 °F 29.8 in South 9.2 mph 15.2 mph 68% 0 in 909 W/m2
20:24 65.7 °F 54.9 °F 29.8 in South 9.2 mph 15.2 mph 68% 0 in 909 W/m2
20:29 65.7 °F 54.9 °F 29.8 in South 9.2 mph 15.2 mph 68% 0 in 909 W/m2
20:34 65.7 °F 54.9 °F 29.8 in South 9.2 mph 15.2 mph 68% 0 in 909 W/m2
20:39 65.7 °F 54.9 °F 29.8 in South 9.2 mph 15.2 mph 68% 0 in 909 W/m2
20:44 65.7 °F 54.9 °F 29.8 in South 9.2 mph 15.2 mph 68% 0 in 909 W/m2
20:49 65.7 °F 54.9 °F 29.8 in South 9.2 mph 15.2 mph 68% 0 in 909 W/m2
20:54 65.7 °F 54.9 °F 29.8 in South 9.2 mph 15.2 mph 68% 0 in 909 W/m2
20:59 65.7 °F 54.9 °F 29.8 in South 9.2 mph 15.2 mph 68% 0 in 909 W/m2
21:04 65.7 °F 54.9 °F 29.8 in South 9.2 mph 15.2 mph 68% 0 in 909 W/m2
21:09 65.7 °F 54.9 °F 29.8 in South 9.2 mph 15.2 mph 68% 0 in 909 W/m2
21:14 65.7 °F 54.9 °F 29.8 in South 9.2 mph 15.2 mph 68% 0 in 909 W/m2
21:19 65.7 °F 54.9 °F 29.8 in South 9.2 mph 15.2 mph 68% 0 in 909 W/m2
21:24 65.7 °F 54.9 °F 29.8 in South 9.2 mph 15.2 mph 68% 0 in 909 W/m2
21:29 65.7 °F 54.9 °F 29.8 in South 9.2 mph 15.2 mph 68% 0 in 909 W/m2
21:34 65.7 °F 54.9 °F 29.8 in South 9.2 mph 15.2 mph 68% 0 in 909 W/m2
21:39 65.7 °F 54.9 °F 29.8 in South 9.2 mph 15.2 mph 68% 0 in 909 W/m2
21:44 65.7 °F 54.9 °F 29.8 in South 9.2 mph 15.2 mph 68% 0 in 909 W/m2
21:51 54.1 °F 49.6 °F 30 in SSW 13.6 mph 18.3 mph 85% 0 in 195 W/m2
21:57 61.3 °F 53.8 °F 29.7 in SW 1.6 mph 18.3 mph 76% 0 in 0 W/m2
22:02 61 °F 53.4 °F 29.7 in SW 0.7 mph 3.1 mph 76% 0 in 0 W/m2
22:07 60.4 °F 53.6 °F 29.7 in SW 0.7 mph 3.1 mph 78% 0 in 0 W/m2
22:12 60.3 °F 53.4 °F 29.7 in Calm   2.2 mph 78% 0 in 0 W/m2
22:17 60.3 °F 53.4 °F 29.7 in Calm     78% 0 in 0 W/m2
22:22 60.1 °F 53.2 °F 29.7 in Calm     78% 0 in 0 W/m2
22:27 60.1 °F 53.6 °F 29.7 in NNW 2.2 mph 4.5 mph 79% 0 in 0 W/m2
22:32 60.1 °F 53.6 °F 29.7 in Calm   4.5 mph 79% 0 in 0 W/m2
22:37 59.9 °F 53.8 °F 29.7 in NNW 0.7 mph 3.1 mph 80% 0 in 0 W/m2
22:42 59.9 °F 54.1 °F 29.7 in NNW 2.2 mph 3.8 mph 81% 0 in 0 W/m2
22:47 59.9 °F 54.7 °F 29.7 in NW 1.6 mph 3.8 mph 83% 0 in 0 W/m2
22:52 59.9 °F 54.7 °F 29.7 in NW 0.7 mph 3.8 mph 83% 0 in 0 W/m2
22:57 59.5 °F 54.3 °F 29.7 in NW 2.2 mph 3.8 mph 83% 0 in 0 W/m2
23:02 59.2 °F 54 °F 29.7 in NW 0.7 mph 3.8 mph 83% 0 in 0 W/m2
23:07 59 °F 54.1 °F 29.7 in Calm   3.8 mph 84% 0 in 0 W/m2
23:12 58.8 °F 54.3 °F 29.7 in North 0.7 mph 3.1 mph 85% 0 in 0 W/m2
23:17 58.6 °F 54.5 °F 29.7 in North 0.7 mph 2.2 mph 86% 0 in 0 W/m2
23:22 58.6 °F 54.5 °F 29.7 in Calm   2.2 mph 86% 0 in 0 W/m2
23:27 58.8 °F 54.7 °F 29.7 in NNW 1.6 mph 3.1 mph 86% 0 in 0 W/m2
23:32 59.5 °F 55.8 °F 29.7 in NNW 1.6 mph 6 mph 87% 0 in 0 W/m2
23:37 59.9 °F 55.8 °F 29.7 in NNW 2.2 mph 6 mph 86% 0 in 0 W/m2
23:42 60.1 °F 55.9 °F 29.7 in NW 2.2 mph 5.4 mph 86% 0 in 0 W/m2
23:47 60.1 °F 55.6 °F 29.7 in WNW 0.7 mph 5.4 mph 85% 0 in 0 W/m2
23:52 60.1 °F 55.6 °F 29.7 in WNW 1.6 mph 5.4 mph 85% 0 in 0 W/m2
Northern Hawkes Bay. New Zealand Historic Data
Compliments of Weather Underground - 2.25 mb